Dong Fang Chun — BRZL — position and weather

sailwx.info

Track history (hours):
 
Tides and Currents Weather Stations Pressure Air Temp Water Temp Dewpoint Dewpoint Depression Visibility Wind Speed Wind Dir Waves Ship Positions

Dong Fang Chun

Last reported at 2014-Nov-22 10:33 UTC. Time now 2014-Nov-22 10:35 UTC.
Position N 22°14' E 113°35'.

Length 23 m; draft 1.4 m.

Type: High speed craft. MMSI: 412461320.

Date/timePositionNaut miles runAvg speedWind from/ knotsBaromVisibWave heightAir tempDewpointWater temp
2014-Nov-22 10:33N 22°14' E 113°35'3 2.5
2014-Nov-22 09:32N 22°16' E 113°37'2020.9
2014-Nov-22 08:33N 22°29' E 113°55'1514.3
2014-Nov-22 07:30N 22°19' E 113°43'3 3.0
2014-Nov-22 06:31N 22°17' E 113°40'1818.6
2014-Nov-22 05:33N 22°29' E 113°55'1919.3
2014-Nov-22 04:34N 22°16' E 113°39'9 8.5
2014-Nov-22 03:33N 22°21' E 113°47'1 0.6
2014-Nov-22 02:16N 22°21' E 113°47'1318.2
2014-Nov-22 01:33N 22°14' E 113°35'1414.0
2014-Nov-22 00:32N 22°22' E 113°48'9 9.0
2014-Nov-21 23:33N 22°29' E 113°55'0 0.1
2014-Nov-21 22:33N 22°29' E 113°55'0 0.0
2014-Nov-21 21:33N 22°29' E 113°55'0 0.0
2014-Nov-21 20:33N 22°29' E 113°55'0 0.0
2014-Nov-21 19:33N 22°29' E 113°55'0 0.0
2014-Nov-21 18:33N 22°29' E 113°55'0 0.0
2014-Nov-21 17:33N 22°29' E 113°55'0 0.0
2014-Nov-21 16:33N 22°29' E 113°55'0 0.0
2014-Nov-21 15:32N 22°29' E 113°55'0 0.0
2014-Nov-21 14:33N 22°29' E 113°55'5 2.6
2014-Nov-21 12:32N 22°24' E 113°54'5 2.6
2014-Nov-21 10:33N 22°29' E 113°55'0 0.0
2014-Nov-21 08:33N 22°29' E 113°55'0 0.1
2014-Nov-21 07:34N 22°29' E 113°55'0 0.0
2014-Nov-21 06:33N 22°29' E 113°55'0 0.0
2014-Nov-21 05:33N 22°29' E 113°55'0 0.0
2014-Nov-21 04:33N 22°29' E 113°55'0 0.0
2014-Nov-21 03:31N 22°29' E 113°55'0 0.0
2014-Nov-21 02:33N 22°29' E 113°55'0 0.0
2014-Nov-21 01:33N 22°29' E 113°55'0 0.0
2014-Nov-21 00:33N 22°29' E 113°55'0 0.0
2014-Nov-20 23:33N 22°29' E 113°55'0 0.0
2014-Nov-20 22:32N 22°29' E 113°55'0 0.0
2014-Nov-20 21:32N 22°29' E 113°55'0 0.0
2014-Nov-20 20:33N 22°29' E 113°55'0 0.0
2014-Nov-20 19:33N 22°29' E 113°55'0 0.0
2014-Nov-20 18:32N 22°29' E 113°55'0 0.0
2014-Nov-20 17:33N 22°29' E 113°55'0 0.0
2014-Nov-20 16:33N 22°29' E 113°55'0 0.0
2014-Nov-20 15:33N 22°29' E 113°55'0 0.0
2014-Nov-20 14:33N 22°29' E 113°55'0 0.0
2014-Nov-20 13:33N 22°29' E 113°55'0 0.0
2014-Nov-20 12:33N 22°29' E 113°55'2 1.8
2014-Nov-20 11:34N 22°27' E 113°54'2121.4
2014-Nov-20 10:33N 22°14' E 113°35'2 1.9
2014-Nov-20 09:33N 22°16' E 113°37'2121.0
2014-Nov-20 08:34N 22°29' E 113°55'1514.3
2014-Nov-20 07:30N 22°18' E 113°42'5 5.1
2014-Nov-20 06:33N 22°16' E 113°38'2019.8
2014-Nov-20 05:33N 22°29' E 113°55'1919.2
2014-Nov-20 04:33N 22°16' E 113°39'9 8.5
2014-Nov-20 03:32N 22°21' E 113°47'9 9.1
2014-Nov-20 02:33N 22°26' E 113°54'2120.8
2014-Nov-20 01:33N 22°14' E 113°35'1312.8
2014-Nov-20 00:34N 22°21' E 113°47'1110.4
2014-Nov-19 23:33N 22°29' E 113°55'0 0.0
2014-Nov-19 22:33N 22°29' E 113°55'0 0.0
2014-Nov-19 21:33N 22°29' E 113°55'0 0.0
2014-Nov-19 20:33N 22°29' E 113°55'0 0.0
2014-Nov-19 19:33N 22°29' E 113°55'0 0.0
2014-Nov-19 18:33N 22°29' E 113°55'0 0.0
2014-Nov-19 17:33N 22°29' E 113°55'0 0.0
2014-Nov-19 16:34N 22°29' E 113°55'0 0.0
2014-Nov-19 15:33N 22°29' E 113°55'0 0.0
2014-Nov-19 14:33N 22°29' E 113°55'4 2.0
2014-Nov-19 12:31N 22°25' E 113°54'4 2.1
2014-Nov-19 10:33N 22°29' E 113°55'0 0.0
2014-Nov-19 08:33N 22°29' E 113°55'4 3.7
2014-Nov-19 07:33N 22°26' E 113°53'2019.0
2014-Nov-19 06:32N 22°14' E 113°35'1212.6
2014-Nov-19 05:33N 22°21' E 113°47'8 7.5
2014-Nov-19 04:33N 22°26' E 113°53'2019.8
2014-Nov-19 03:33N 22°14' E 113°35'1312.6
2014-Nov-19 02:33N 22°21' E 113°47'8 7.7
2014-Nov-19 01:33N 22°26' E 113°53'2019.6
2014-Nov-19 00:32N 22°14' E 113°35'0 0.0
2014-Nov-18 23:32N 22°14' E 113°35'0 0.0
2014-Nov-18 22:33N 22°14' E 113°35'0 0.0
2014-Nov-18 21:33N 22°14' E 113°35'0 0.0
2014-Nov-18 20:33N 22°14' E 113°35'0 0.0
2014-Nov-18 19:32N 22°14' E 113°35'0 0.0
2014-Nov-18 18:33N 22°14' E 113°35'0 0.0
2014-Nov-18 17:32N 22°14' E 113°35'0 0.0
2014-Nov-18 16:33N 22°14' E 113°35'0 0.0
2014-Nov-18 15:31N 22°14' E 113°35'0 0.0
2014-Nov-18 14:33N 22°14' E 113°35'2 2.1
2014-Nov-18 13:33N 22°16' E 113°37'2120.6
2014-Nov-18 12:33N 22°29' E 113°55'0 0.0
2014-Nov-18 10:23N 22°29' E 113°55'0 0.0
2014-Nov-18 08:33N 22°29' E 113°55'0 0.0
2014-Nov-18 06:33N 22°29' E 113°55'4 1.8
2014-Nov-18 04:33N 22°25' E 113°54'3 3.4
2014-Nov-18 03:33N 22°29' E 113°55'5 4.7
2014-Nov-18 02:29N 22°24' E 113°54'5 5.7
2014-Nov-18 01:33N 22°29' E 113°55'5 3.7
2014-Nov-18 00:09N 22°24' E 113°54'5 8.6
2014-Nov-17 23:34N 22°29' E 113°55'0 0.1
2014-Nov-17 22:33N 22°29' E 113°55'0 0.1
2014-Nov-17 21:33N 22°29' E 113°55'0 0.0
2014-Nov-17 20:33N 22°29' E 113°55'0 0.0
2014-Nov-17 19:33N 22°29' E 113°55'0 0.0
2014-Nov-17 18:33N 22°29' E 113°55'0 0.0
2014-Nov-17 17:33N 22°29' E 113°55'0 0.0
2014-Nov-17 16:33N 22°29' E 113°55'0 0.0
2014-Nov-17 15:33N 22°29' E 113°55'0 0.1
2014-Nov-17 14:33N 22°29' E 113°55'9 7.3
2014-Nov-17 13:15N 22°22' E 113°47'1319.0
2014-Nov-17 12:33N 22°14' E 113°35'1211.3
2014-Nov-17 11:30N 22°21' E 113°46'2 2.1
2014-Nov-17 10:20N 22°22' E 113°48'1417.9
2014-Nov-17 09:33N 22°14' E 113°35'0 0.0
2014-Nov-17 08:33N 22°14' E 113°35'1312.6
2014-Nov-17 07:32N 22°21' E 113°47'1 0.5
2014-Nov-17 06:16N 22°21' E 113°48'1317.9
2014-Nov-17 05:32N 22°14' E 113°35'1212.1
2014-Nov-17 04:33N 22°21' E 113°46'7 7.0
2014-Nov-17 03:33N 22°25' E 113°52'1918.2
2014-Nov-17 02:32N 22°14' E 113°35'1313.4
2014-Nov-17 01:34N 22°21' E 113°47'1010.1
2014-Nov-17 00:33N 22°29' E 113°55'0 0.0
2014-Nov-16 23:33N 22°29' E 113°55'0 0.0
2014-Nov-16 22:33N 22°29' E 113°55'0 0.0
2014-Nov-16 21:31N 22°29' E 113°55'0 0.0
2014-Nov-16 20:34N 22°29' E 113°55'0 0.0
2014-Nov-16 19:34N 22°29' E 113°55'0 0.0
2014-Nov-16 18:34N 22°29' E 113°55'0 0.0
2014-Nov-16 17:33N 22°29' E 113°55'0 0.0
2014-Nov-16 16:34N 22°29' E 113°55'0 0.0
2014-Nov-16 15:34N 22°29' E 113°55'0 0.0
2014-Nov-16 14:33N 22°29' E 113°55'0 0.2
2014-Nov-16 12:33N 22°29' E 113°55'0 0.2
2014-Nov-16 10:33N 22°29' E 113°55'0 0.0
2014-Nov-16 08:33N 22°29' E 113°55'0 0.0
2014-Nov-16 06:33N 22°29' E 113°55'1 0.6
2014-Nov-16 04:33N 22°28' E 113°55'1 1.1
2014-Nov-16 03:33N 22°29' E 113°55'9 7.5
2014-Nov-16 02:18N 22°22' E 113°48'1416.0
2014-Nov-16 01:26N 22°14' E 113°35'1214.2
2014-Nov-16 00:33N 22°21' E 113°47'1110.6
2014-Nov-15 23:33N 22°29' E 113°55'0 0.0
2014-Nov-15 22:33N 22°29' E 113°55'0 0.0
2014-Nov-15 21:33N 22°29' E 113°55'0 0.0
2014-Nov-15 20:33N 22°29' E 113°55'0 0.0
2014-Nov-15 19:33N 22°29' E 113°55'0 0.0
2014-Nov-15 18:33N 22°29' E 113°55'0 0.0
2014-Nov-15 17:33N 22°29' E 113°55'0 0.0
2014-Nov-15 16:33N 22°29' E 113°55'0 0.0
2014-Nov-15 15:33N 22°29' E 113°55'9 8.6
2014-Nov-15 14:32N 22°22' E 113°48'1414.7
2014-Nov-15 13:33N 22°14' E 113°35'1918.1
2014-Nov-15 12:29N 22°25' E 113°53'4 2.1
2014-Nov-15 10:33N 22°29' E 113°55'0 0.0
2014-Nov-15 08:33N 22°29' E 113°55'0 0.0
2014-Nov-15 06:34N 22°29' E 113°55'1514.0
2014-Nov-15 05:27N 22°18' E 113°42'5 5.8
2014-Nov-15 04:33N 22°16' E 113°37'2120.5
2014-Nov-15 03:33N 22°29' E 113°55'1615.6
2014-Nov-15 02:33N 22°18' E 113°42'1 0.6
2014-Nov-15 01:32N 22°18' E 113°42'1616.3
2014-Nov-15 00:33N 22°29' E 113°55'0 0.0
2014-Nov-14 23:33N 22°29' E 113°55'0 0.0
2014-Nov-14 22:33N 22°29' E 113°55'0 0.0
2014-Nov-14 21:33N 22°29' E 113°55'0 0.0
2014-Nov-14 20:33N 22°29' E 113°55'0 0.0
2014-Nov-14 19:33N 22°29' E 113°55'0 0.0
2014-Nov-14 18:33N 22°29' E 113°55'0 0.0
2014-Nov-14 17:33N 22°29' E 113°55'0 0.0
2014-Nov-14 16:33N 22°29' E 113°55'0 0.0
2014-Nov-14 15:33N 22°29' E 113°55'10 9.8
2014-Nov-14 14:33N 22°22' E 113°47'6 3.1
2014-Nov-14 12:27N 22°26' E 113°53'3 1.8
2014-Nov-14 10:33N 22°29' E 113°55'0 0.0
2014-Nov-14 08:33N 22°29' E 113°55'0 0.0
2014-Nov-14 06:34N 22°29' E 113°55'1515.3
2014-Nov-14 05:33N 22°18' E 113°42'1 1.0
2014-Nov-14 04:33N 22°18' E 113°41'1616.3
2014-Nov-14 03:33N 22°29' E 113°55'1918.8
2014-Nov-14 02:33N 22°16' E 113°39'4 4.0
2014-Nov-14 01:33N 22°18' E 113°43'1515.1
2014-Nov-14 00:33N 22°29' E 113°55'0 0.0
2014-Nov-13 23:33N 22°29' E 113°55'0 0.0
2014-Nov-13 22:31N 22°29' E 113°55'0 0.0
2014-Nov-13 21:33N 22°29' E 113°55'0 0.0
2014-Nov-13 20:33N 22°29' E 113°55'0 0.0
2014-Nov-13 19:33N 22°29' E 113°55'0 0.0
2014-Nov-13 18:31N 22°29' E 113°55'0 0.0
2014-Nov-13 17:33N 22°29' E 113°55'0 0.0
2014-Nov-13 16:33N 22°29' E 113°55'0 0.0
2014-Nov-13 15:33N 22°29' E 113°55'0 0.0
2014-Nov-13 14:33N 22°29' E 113°55'0 0.0
2014-Nov-13 13:33N 22°29' E 113°55'0 0.0
2014-Nov-13 12:33N 22°29' E 113°55'0 0.0
2014-Nov-13 11:33N 22°29' E 113°55'0 0.1
2014-Nov-13 10:33N 22°29' E 113°55'0 0.0
2014-Nov-13 08:33N 22°29' E 113°55'1313.4
2014-Nov-13 07:33N 22°20' E 113°44'8 7.8
2014-Nov-13 06:33N 22°15' E 113°37'2121.2
2014-Nov-13 05:33N 22°28' E 113°55'0 0.5
2014-Nov-13 04:33N 22°29' E 113°55'0 0.0
2014-Nov-13 03:33N 22°29' E 113°55'0 0.0
2014-Nov-13 02:33N 22°29' E 113°55'0 0.0
2014-Nov-13 01:33N 22°29' E 113°55'0 0.0
2014-Nov-13 00:33N 22°29' E 113°55'0 0.0
2014-Nov-12 23:33N 22°29' E 113°55'0 0.0
2014-Nov-12 22:33N 22°29' E 113°55'0 0.0
2014-Nov-12 21:33N 22°29' E 113°55'0 0.0
2014-Nov-12 20:33N 22°29' E 113°55'0 0.0
2014-Nov-12 19:33N 22°29' E 113°55'0 0.0
2014-Nov-12 18:33N 22°29' E 113°55'0 0.0
2014-Nov-12 17:33N 22°29' E 113°55'0 0.0
2014-Nov-12 16:33N 22°29' E 113°55'0 0.0
2014-Nov-12 15:33N 22°29' E 113°55'0 0.0
2014-Nov-12 14:33N 22°29' E 113°55'0 0.0
2014-Nov-12 13:32N 22°29' E 113°55'1717.3
2014-Nov-12 12:33N 22°18' E 113°40'4 4.0
2014-Nov-12 11:33N 22°20' E 113°44'4 3.0
2014-Nov-12 10:16N 22°21' E 113°48'1419.1
2014-Nov-12 09:33N 22°14' E 113°35'  
Track history (hours):
 
Tides and Currents Weather Stations Pressure Air Temp Water Temp Dewpoint Dewpoint Depression Visibility Wind Speed Wind Dir Waves Ship Positions

Dong Fang Chun

Last reported at 2014-Nov-22 10:33 UTC. Time now 2014-Nov-22 10:35 UTC.
Position N 22°14' E 113°35'.

Length 23 m; draft 1.4 m.

Type: High speed craft. MMSI: 412461320.

Date/timePositionNaut miles runAvg speedWind from/ knotsBaromVisibWave heightAir tempDewpointWater temp
2014-Nov-22 10:33N 22°14' E 113°35'3 2.5
2014-Nov-22 09:32N 22°16' E 113°37'2020.9
2014-Nov-22 08:33N 22°29' E 113°55'1514.3
2014-Nov-22 07:30N 22°19' E 113°43'3 3.0
2014-Nov-22 06:31N 22°17' E 113°40'1818.6
2014-Nov-22 05:33N 22°29' E 113°55'1919.3
2014-Nov-22 04:34N 22°16' E 113°39'9 8.5
2014-Nov-22 03:33N 22°21' E 113°47'1 0.6
2014-Nov-22 02:16N 22°21' E 113°47'1318.2
2014-Nov-22 01:33N 22°14' E 113°35'1414.0
2014-Nov-22 00:32N 22°22' E 113°48'9 9.0
2014-Nov-21 23:33N 22°29' E 113°55'0 0.1
2014-Nov-21 22:33N 22°29' E 113°55'0 0.0
2014-Nov-21 21:33N 22°29' E 113°55'0 0.0
2014-Nov-21 20:33N 22°29' E 113°55'0 0.0
2014-Nov-21 19:33N 22°29' E 113°55'0 0.0
2014-Nov-21 18:33N 22°29' E 113°55'0 0.0
2014-Nov-21 17:33N 22°29' E 113°55'0 0.0
2014-Nov-21 16:33N 22°29' E 113°55'0 0.0
2014-Nov-21 15:32N 22°29' E 113°55'0 0.0
2014-Nov-21 14:33N 22°29' E 113°55'5 2.6
2014-Nov-21 12:32N 22°24' E 113°54'5 2.6
2014-Nov-21 10:33N 22°29' E 113°55'0 0.0
2014-Nov-21 08:33N 22°29' E 113°55'0 0.1
2014-Nov-21 07:34N 22°29' E 113°55'0 0.0
2014-Nov-21 06:33N 22°29' E 113°55'0 0.0
2014-Nov-21 05:33N 22°29' E 113°55'0 0.0
2014-Nov-21 04:33N 22°29' E 113°55'0 0.0
2014-Nov-21 03:31N 22°29' E 113°55'0 0.0
2014-Nov-21 02:33N 22°29' E 113°55'0 0.0
2014-Nov-21 01:33N 22°29' E 113°55'0 0.0
2014-Nov-21 00:33N 22°29' E 113°55'0 0.0
2014-Nov-20 23:33N 22°29' E 113°55'0 0.0
2014-Nov-20 22:32N 22°29' E 113°55'0 0.0
2014-Nov-20 21:32N 22°29' E 113°55'0 0.0
2014-Nov-20 20:33N 22°29' E 113°55'0 0.0
2014-Nov-20 19:33N 22°29' E 113°55'0 0.0
2014-Nov-20 18:32N 22°29' E 113°55'0 0.0
2014-Nov-20 17:33N 22°29' E 113°55'0 0.0
2014-Nov-20 16:33N 22°29' E 113°55'0 0.0
2014-Nov-20 15:33N 22°29' E 113°55'0 0.0
2014-Nov-20 14:33N 22°29' E 113°55'0 0.0
2014-Nov-20 13:33N 22°29' E 113°55'0 0.0
2014-Nov-20 12:33N 22°29' E 113°55'2 1.8
2014-Nov-20 11:34N 22°27' E 113°54'2121.4
2014-Nov-20 10:33N 22°14' E 113°35'2 1.9
2014-Nov-20 09:33N 22°16' E 113°37'2121.0
2014-Nov-20 08:34N 22°29' E 113°55'1514.3
2014-Nov-20 07:30N 22°18' E 113°42'5 5.1
2014-Nov-20 06:33N 22°16' E 113°38'2019.8
2014-Nov-20 05:33N 22°29' E 113°55'1919.2
2014-Nov-20 04:33N 22°16' E 113°39'9 8.5
2014-Nov-20 03:32N 22°21' E 113°47'9 9.1
2014-Nov-20 02:33N 22°26' E 113°54'2120.8
2014-Nov-20 01:33N 22°14' E 113°35'1312.8
2014-Nov-20 00:34N 22°21' E 113°47'1110.4
2014-Nov-19 23:33N 22°29' E 113°55'0 0.0
2014-Nov-19 22:33N 22°29' E 113°55'0 0.0
2014-Nov-19 21:33N 22°29' E 113°55'0 0.0
2014-Nov-19 20:33N 22°29' E 113°55'0 0.0
2014-Nov-19 19:33N 22°29' E 113°55'0 0.0
2014-Nov-19 18:33N 22°29' E 113°55'0 0.0
2014-Nov-19 17:33N 22°29' E 113°55'0 0.0
2014-Nov-19 16:34N 22°29' E 113°55'0 0.0
2014-Nov-19 15:33N 22°29' E 113°55'0 0.0
2014-Nov-19 14:33N 22°29' E 113°55'4 2.0
2014-Nov-19 12:31N 22°25' E 113°54'4 2.1
2014-Nov-19 10:33N 22°29' E 113°55'0 0.0
2014-Nov-19 08:33N 22°29' E 113°55'4 3.7
2014-Nov-19 07:33N 22°26' E 113°53'2019.0
2014-Nov-19 06:32N 22°14' E 113°35'1212.6
2014-Nov-19 05:33N 22°21' E 113°47'8 7.5
2014-Nov-19 04:33N 22°26' E 113°53'2019.8
2014-Nov-19 03:33N 22°14' E 113°35'1312.6
2014-Nov-19 02:33N 22°21' E 113°47'8 7.7
2014-Nov-19 01:33N 22°26' E 113°53'2019.6
2014-Nov-19 00:32N 22°14' E 113°35'0 0.0
2014-Nov-18 23:32N 22°14' E 113°35'0 0.0
2014-Nov-18 22:33N 22°14' E 113°35'0 0.0
2014-Nov-18 21:33N 22°14' E 113°35'0 0.0
2014-Nov-18 20:33N 22°14' E 113°35'0 0.0
2014-Nov-18 19:32N 22°14' E 113°35'0 0.0
2014-Nov-18 18:33N 22°14' E 113°35'0 0.0
2014-Nov-18 17:32N 22°14' E 113°35'0 0.0
2014-Nov-18 16:33N 22°14' E 113°35'0 0.0
2014-Nov-18 15:31N 22°14' E 113°35'0 0.0
2014-Nov-18 14:33N 22°14' E 113°35'2 2.1
2014-Nov-18 13:33N 22°16' E 113°37'2120.6
2014-Nov-18 12:33N 22°29' E 113°55'0 0.0
2014-Nov-18 10:23N 22°29' E 113°55'0 0.0
2014-Nov-18 08:33N 22°29' E 113°55'0 0.0
2014-Nov-18 06:33N 22°29' E 113°55'4 1.8
2014-Nov-18 04:33N 22°25' E 113°54'3 3.4
2014-Nov-18 03:33N 22°29' E 113°55'5 4.7
2014-Nov-18 02:29N 22°24' E 113°54'5 5.7
2014-Nov-18 01:33N 22°29' E 113°55'5 3.7
2014-Nov-18 00:09N 22°24' E 113°54'5 8.6
2014-Nov-17 23:34N 22°29' E 113°55'0 0.1
2014-Nov-17 22:33N 22°29' E 113°55'0 0.1
2014-Nov-17 21:33N 22°29' E 113°55'0 0.0
2014-Nov-17 20:33N 22°29' E 113°55'0 0.0
2014-Nov-17 19:33N 22°29' E 113°55'0 0.0
2014-Nov-17 18:33N 22°29' E 113°55'0 0.0
2014-Nov-17 17:33N 22°29' E 113°55'0 0.0
2014-Nov-17 16:33N 22°29' E 113°55'0 0.0
2014-Nov-17 15:33N 22°29' E 113°55'0 0.1
2014-Nov-17 14:33N 22°29' E 113°55'9 7.3
2014-Nov-17 13:15N 22°22' E 113°47'1319.0
2014-Nov-17 12:33N 22°14' E 113°35'1211.3
2014-Nov-17 11:30N 22°21' E 113°46'2 2.1
2014-Nov-17 10:20N 22°22' E 113°48'1417.9
2014-Nov-17 09:33N 22°14' E 113°35'0 0.0
2014-Nov-17 08:33N 22°14' E 113°35'1312.6
2014-Nov-17 07:32N 22°21' E 113°47'1 0.5
2014-Nov-17 06:16N 22°21' E 113°48'1317.9
2014-Nov-17 05:32N 22°14' E 113°35'1212.1
2014-Nov-17 04:33N 22°21' E 113°46'7 7.0
2014-Nov-17 03:33N 22°25' E 113°52'1918.2
2014-Nov-17 02:32N 22°14' E 113°35'1313.4
2014-Nov-17 01:34N 22°21' E 113°47'1010.1
2014-Nov-17 00:33N 22°29' E 113°55'0 0.0
2014-Nov-16 23:33N 22°29' E 113°55'0 0.0
2014-Nov-16 22:33N 22°29' E 113°55'0 0.0
2014-Nov-16 21:31N 22°29' E 113°55'0 0.0
2014-Nov-16 20:34N 22°29' E 113°55'0 0.0
2014-Nov-16 19:34N 22°29' E 113°55'0 0.0
2014-Nov-16 18:34N 22°29' E 113°55'0 0.0
2014-Nov-16 17:33N 22°29' E 113°55'0 0.0
2014-Nov-16 16:34N 22°29' E 113°55'0 0.0
2014-Nov-16 15:34N 22°29' E 113°55'0 0.0
2014-Nov-16 14:33N 22°29' E 113°55'0 0.2
2014-Nov-16 12:33N 22°29' E 113°55'0 0.2
2014-Nov-16 10:33N 22°29' E 113°55'0 0.0
2014-Nov-16 08:33N 22°29' E 113°55'0 0.0
2014-Nov-16 06:33N 22°29' E 113°55'1 0.6
2014-Nov-16 04:33N 22°28' E 113°55'1 1.1
2014-Nov-16 03:33N 22°29' E 113°55'9 7.5
2014-Nov-16 02:18N 22°22' E 113°48'1416.0
2014-Nov-16 01:26N 22°14' E 113°35'1214.2
2014-Nov-16 00:33N 22°21' E 113°47'1110.6
2014-Nov-15 23:33N 22°29' E 113°55'0 0.0
2014-Nov-15 22:33N 22°29' E 113°55'0 0.0
2014-Nov-15 21:33N 22°29' E 113°55'0 0.0
2014-Nov-15 20:33N 22°29' E 113°55'0 0.0
2014-Nov-15 19:33N 22°29' E 113°55'0 0.0
2014-Nov-15 18:33N 22°29' E 113°55'0 0.0
2014-Nov-15 17:33N 22°29' E 113°55'0 0.0
2014-Nov-15 16:33N 22°29' E 113°55'0 0.0
2014-Nov-15 15:33N 22°29' E 113°55'9 8.6
2014-Nov-15 14:32N 22°22' E 113°48'1414.7
2014-Nov-15 13:33N 22°14' E 113°35'1918.1
2014-Nov-15 12:29N 22°25' E 113°53'4 2.1
2014-Nov-15 10:33N 22°29' E 113°55'0 0.0
2014-Nov-15 08:33N 22°29' E 113°55'0 0.0
2014-Nov-15 06:34N 22°29' E 113°55'1514.0
2014-Nov-15 05:27N 22°18' E 113°42'5 5.8
2014-Nov-15 04:33N 22°16' E 113°37'2120.5
2014-Nov-15 03:33N 22°29' E 113°55'1615.6
2014-Nov-15 02:33N 22°18' E 113°42'1 0.6
2014-Nov-15 01:32N 22°18' E 113°42'1616.3
2014-Nov-15 00:33N 22°29' E 113°55'0 0.0
2014-Nov-14 23:33N 22°29' E 113°55'0 0.0
2014-Nov-14 22:33N 22°29' E 113°55'0 0.0
2014-Nov-14 21:33N 22°29' E 113°55'0 0.0
2014-Nov-14 20:33N 22°29' E 113°55'0 0.0
2014-Nov-14 19:33N 22°29' E 113°55'0 0.0
2014-Nov-14 18:33N 22°29' E 113°55'0 0.0
2014-Nov-14 17:33N 22°29' E 113°55'0 0.0
2014-Nov-14 16:33N 22°29' E 113°55'0 0.0
2014-Nov-14 15:33N 22°29' E 113°55'10 9.8
2014-Nov-14 14:33N 22°22' E 113°47'6 3.1
2014-Nov-14 12:27N 22°26' E 113°53'3 1.8
2014-Nov-14 10:33N 22°29' E 113°55'0 0.0
2014-Nov-14 08:33N 22°29' E 113°55'0 0.0
2014-Nov-14 06:34N 22°29' E 113°55'1515.3
2014-Nov-14 05:33N 22°18' E 113°42'1 1.0
2014-Nov-14 04:33N 22°18' E 113°41'1616.3
2014-Nov-14 03:33N 22°29' E 113°55'1918.8
2014-Nov-14 02:33N 22°16' E 113°39'4 4.0
2014-Nov-14 01:33N 22°18' E 113°43'1515.1
2014-Nov-14 00:33N 22°29' E 113°55'0 0.0
2014-Nov-13 23:33N 22°29' E 113°55'0 0.0
2014-Nov-13 22:31N 22°29' E 113°55'0 0.0
2014-Nov-13 21:33N 22°29' E 113°55'0 0.0
2014-Nov-13 20:33N 22°29' E 113°55'0 0.0
2014-Nov-13 19:33N 22°29' E 113°55'0 0.0
2014-Nov-13 18:31N 22°29' E 113°55'0 0.0
2014-Nov-13 17:33N 22°29' E 113°55'0 0.0
2014-Nov-13 16:33N 22°29' E 113°55'0 0.0
2014-Nov-13 15:33N 22°29' E 113°55'0 0.0
2014-Nov-13 14:33N 22°29' E 113°55'0 0.0
2014-Nov-13 13:33N 22°29' E 113°55'0 0.0
2014-Nov-13 12:33N 22°29' E 113°55'0 0.0
2014-Nov-13 11:33N 22°29' E 113°55'0 0.1
2014-Nov-13 10:33N 22°29' E 113°55'0 0.0
2014-Nov-13 08:33N 22°29' E 113°55'1313.4
2014-Nov-13 07:33N 22°20' E 113°44'8 7.8
2014-Nov-13 06:33N 22°15' E 113°37'2121.2
2014-Nov-13 05:33N 22°28' E 113°55'0 0.5
2014-Nov-13 04:33N 22°29' E 113°55'0 0.0
2014-Nov-13 03:33N 22°29' E 113°55'0 0.0
2014-Nov-13 02:33N 22°29' E 113°55'0 0.0
2014-Nov-13 01:33N 22°29' E 113°55'0 0.0
2014-Nov-13 00:33N 22°29' E 113°55'0 0.0
2014-Nov-12 23:33N 22°29' E 113°55'0 0.0
2014-Nov-12 22:33N 22°29' E 113°55'0 0.0
2014-Nov-12 21:33N 22°29' E 113°55'0 0.0
2014-Nov-12 20:33N 22°29' E 113°55'0 0.0
2014-Nov-12 19:33N 22°29' E 113°55'0 0.0
2014-Nov-12 18:33N 22°29' E 113°55'0 0.0
2014-Nov-12 17:33N 22°29' E 113°55'0 0.0
2014-Nov-12 16:33N 22°29' E 113°55'0 0.0
2014-Nov-12 15:33N 22°29' E 113°55'0 0.0
2014-Nov-12 14:33N 22°29' E 113°55'0 0.0
2014-Nov-12 13:32N 22°29' E 113°55'1717.3
2014-Nov-12 12:33N 22°18' E 113°40'4 4.0
2014-Nov-12 11:33N 22°20' E 113°44'4 3.0
2014-Nov-12 10:16N 22°21' E 113°48'1419.1
2014-Nov-12 09:33N 22°14' E 113°35'  

Dump ship's entire track history